sensor_id;sensor_type;location;lat;lon;timestamp;pressure;altitude;pressure_sealevel;temperature;humidity
50650;BME280;36621;60.058;30.346;2023-08-01T00:02:35;100317.38;;;18.34;73.52
50650;BME280;36621;60.058;30.346;2023-08-01T00:10:09;100349.28;;;18.52;73.90
50650;BME280;36621;60.058;30.346;2023-08-01T00:17:41;100325.88;;;18.29;73.34
50650;BME280;36621;60.058;30.346;2023-08-01T00:25:14;100344.81;;;18.39;73.66
50650;BME280;36621;60.058;30.346;2023-08-01T00:32:46;100354.47;;;18.24;72.99
50650;BME280;36621;60.058;30.346;2023-08-01T00:40:19;100297.28;;;17.95;74.05
50650;BME280;36621;60.058;30.346;2023-08-01T00:47:52;100337.84;;;18.12;74.07
50650;BME280;36621;60.058;30.346;2023-08-01T00:55:26;100352.59;;;18.16;73.89
50650;BME280;36621;60.058;30.346;2023-08-01T01:02:59;100335.78;;;18.00;73.61
50650;BME280;36621;60.058;30.346;2023-08-01T01:10:32;100351.84;;;17.98;73.16
50650;BME280;36621;60.058;30.346;2023-08-01T01:18:05;100352.81;;;18.02;73.64
50650;BME280;36621;60.058;30.346;2023-08-01T01:25:39;100342.91;;;18.01;74.33
50650;BME280;36621;60.058;30.346;2023-08-01T01:33:12;100323.50;;;17.80;73.61
50650;BME280;36621;60.058;30.346;2023-08-01T01:40:46;100345.72;;;17.92;73.51
50650;BME280;36621;60.058;30.346;2023-08-01T01:48:18;100369.22;;;18.07;73.71
50650;BME280;36621;60.058;30.346;2023-08-01T01:55:51;100318.28;;;17.87;74.01
50650;BME280;36621;60.058;30.346;2023-08-01T02:03:23;100361.63;;;18.25;73.32
50650;BME280;36621;60.058;30.346;2023-08-01T02:10:56;100360.94;;;18.58;72.89
50650;BME280;36621;60.058;30.346;2023-08-01T02:18:29;100361.03;;;18.91;71.15
50650;BME280;36621;60.058;30.346;2023-08-01T02:26:03;100357.34;;;19.21;70.98
50650;BME280;36621;60.058;30.346;2023-08-01T02:33:35;100377.19;;;19.56;71.03
50650;BME280;36621;60.058;30.346;2023-08-01T02:41:08;100335.00;;;19.72;70.36
50650;BME280;36621;60.058;30.346;2023-08-01T02:48:40;100369.25;;;21.19;65.62
50650;BME280;36621;60.058;30.346;2023-08-01T02:56:13;100355.22;;;21.72;62.29
50650;BME280;36621;60.058;30.346;2023-08-01T03:03:48;100319.22;;;21.31;64.99
50650;BME280;36621;60.058;30.346;2023-08-01T03:11:21;100358.88;;;20.63;65.72
50650;BME280;36621;60.058;30.346;2023-08-01T03:18:54;100362.75;;;20.09;67.40
50650;BME280;36621;60.058;30.346;2023-08-01T03:26:28;100361.41;;;19.69;68.42
50650;BME280;36621;60.058;30.346;2023-08-01T03:34:00;100339.31;;;19.36;69.55
50650;BME280;36621;60.058;30.346;2023-08-01T03:41:33;100360.88;;;19.76;69.65
50650;BME280;36621;60.058;30.346;2023-08-01T03:49:05;100345.06;;;19.89;69.04
50650;BME280;36621;60.058;30.346;2023-08-01T03:56:42;100313.25;;;19.95;68.80
50650;BME280;36621;60.058;30.346;2023-08-01T04:04:24;100309.19;;;20.17;68.55
50650;BME280;36621;60.058;30.346;2023-08-01T04:11:57;100352.19;;;20.76;68.30
50650;BME280;36621;60.058;30.346;2023-08-01T04:19:31;100345.97;;;20.95;68.53
50650;BME280;36621;60.058;30.346;2023-08-01T04:27:05;100346.44;;;21.86;67.24
50650;BME280;36621;60.058;30.346;2023-08-01T04:34:37;100344.69;;;22.45;63.99
50650;BME280;36621;60.058;30.346;2023-08-01T04:42:10;100342.41;;;22.51;64.76
50650;BME280;36621;60.058;30.346;2023-08-01T04:49:43;100344.97;;;24.04;60.61
50650;BME280;36621;60.058;30.346;2023-08-01T04:57:49;100354.09;;;28.20;55.96
50650;BME280;36621;60.058;30.346;2023-08-01T05:24:07;100311.63;;;34.04;39.17
50650;BME280;36621;60.058;30.346;2023-08-01T05:31:41;100284.09;;;34.21;32.79
50650;BME280;36621;60.058;30.346;2023-08-01T05:39:15;100335.56;;;35.17;31.92
50650;BME280;36621;60.058;30.346;2023-08-01T05:46:48;100342.00;;;36.07;29.66
50650;BME280;36621;60.058;30.346;2023-08-01T05:54:20;100295.25;;;36.43;28.95
50650;BME280;36621;60.058;30.346;2023-08-01T06:01:52;100331.81;;;35.97;29.87
50650;BME280;36621;60.058;30.346;2023-08-01T06:09:25;100324.41;;;34.41;31.44
50650;BME280;36621;60.058;30.346;2023-08-01T06:16:57;100338.91;;;32.08;35.00
50650;BME280;36621;60.058;30.346;2023-08-01T06:24:30;100350.03;;;28.61;42.34
50650;BME280;36621;60.058;30.346;2023-08-01T06:32:03;100331.47;;;26.91;46.28
50650;BME280;36621;60.058;30.346;2023-08-01T17:49:57;100282.38;;;25.30;39.58
50650;BME280;36621;60.058;30.346;2023-08-01T17:57:29;100286.81;;;24.93;40.38
50650;BME280;36621;60.058;30.346;2023-08-01T18:05:02;100293.78;;;24.76;40.61
50650;BME280;36621;60.058;30.346;2023-08-01T18:12:35;100295.09;;;24.56;40.89
50650;BME280;36621;60.058;30.346;2023-08-01T18:20:09;100297.34;;;24.47;41.67
50650;BME280;36621;60.058;30.346;2023-08-01T18:27:42;100265.66;;;24.01;41.75
50650;BME280;36621;60.058;30.346;2023-08-01T18:35:15;100284.00;;;24.02;42.52
50650;BME280;36621;60.058;30.346;2023-08-01T18:42:47;100282.81;;;23.80;42.61
50650;BME280;36621;60.058;30.346;2023-08-01T18:50:21;100277.56;;;23.75;42.84
50650;BME280;36621;60.058;30.346;2023-08-01T18:58:08;100265.81;;;23.62;43.05
50650;BME280;36621;60.058;30.346;2023-08-01T19:05:42;100301.00;;;23.70;42.77
50650;BME280;36621;60.058;30.346;2023-08-01T19:13:14;100271.53;;;23.46;43.67
50650;BME280;36621;60.058;30.346;2023-08-01T19:20:51;100311.28;;;23.66;43.97
50650;BME280;36621;60.058;30.346;2023-08-01T19:28:23;100304.13;;;23.46;44.91
50650;BME280;36621;60.058;30.346;2023-08-01T19:35:56;100306.38;;;23.36;46.16
50650;BME280;36621;60.058;30.346;2023-08-01T19:43:28;100297.63;;;23.15;47.11
50650;BME280;36621;60.058;30.346;2023-08-01T19:51:01;100311.84;;;23.10;48.11
50650;BME280;36621;60.058;30.346;2023-08-01T19:58:33;100299.41;;;22.84;48.94
50650;BME280;36621;60.058;30.346;2023-08-01T20:06:06;100300.31;;;22.72;49.42
50650;BME280;36621;60.058;30.346;2023-08-01T20:13:38;100322.31;;;22.77;49.89
50650;BME280;36621;60.058;30.346;2023-08-01T20:21:11;100315.50;;;22.75;49.86
50650;BME280;36621;60.058;30.346;2023-08-01T20:28:43;100319.75;;;22.68;50.40
50650;BME280;36621;60.058;30.346;2023-08-01T20:36:16;100321.41;;;22.73;50.50
50650;BME280;36621;60.058;30.346;2023-08-01T20:43:48;100333.28;;;22.70;50.92
50650;BME280;36621;60.058;30.346;2023-08-01T20:51:21;100332.13;;;22.71;50.94
50650;BME280;36621;60.058;30.346;2023-08-01T20:58:53;100336.22;;;22.77;51.31
50650;BME280;36621;60.058;30.346;2023-08-01T21:06:26;100333.81;;;22.76;51.21
50650;BME280;36621;60.058;30.346;2023-08-01T21:13:58;100324.41;;;22.64;51.57
50650;BME280;36621;60.058;30.346;2023-08-01T21:21:31;100338.84;;;22.50;51.95
50650;BME280;36621;60.058;30.346;2023-08-01T21:29:03;100336.06;;;22.34;52.49
50650;BME280;36621;60.058;30.346;2023-08-01T21:36:36;100335.38;;;22.22;52.90
50650;BME280;36621;60.058;30.346;2023-08-01T21:44:08;100337.47;;;22.09;53.17
50650;BME280;36621;60.058;30.346;2023-08-01T21:51:41;100286.28;;;21.78;53.33
50650;BME280;36621;60.058;30.346;2023-08-01T21:59:13;100323.59;;;21.93;54.07
50650;BME280;36621;60.058;30.346;2023-08-01T22:06:47;100328.59;;;21.87;54.29
50650;BME280;36621;60.058;30.346;2023-08-01T22:14:19;100317.56;;;21.75;54.79
50650;BME280;36621;60.058;30.346;2023-08-01T22:21:52;100331.81;;;21.73;54.89
50650;BME280;36621;60.058;30.346;2023-08-01T22:29:24;100341.13;;;21.65;55.39
50650;BME280;36621;60.058;30.346;2023-08-01T22:36:57;100327.16;;;21.61;55.61
50650;BME280;36621;60.058;30.346;2023-08-01T22:44:29;100316.31;;;21.56;55.50
50650;BME280;36621;60.058;30.346;2023-08-01T22:52:01;100321.88;;;21.56;55.46
50650;BME280;36621;60.058;30.346;2023-08-01T22:59:34;100265.91;;;21.10;55.84
50650;BME280;36621;60.058;30.346;2023-08-01T23:07:07;100324.00;;;21.47;55.76
50650;BME280;36621;60.058;30.346;2023-08-01T23:14:40;100318.84;;;21.33;56.48
50650;BME280;36621;60.058;30.346;2023-08-01T23:22:12;100312.13;;;21.18;56.50
50650;BME280;36621;60.058;30.346;2023-08-01T23:29:44;100328.06;;;21.21;56.69
50650;BME280;36621;60.058;30.346;2023-08-01T23:37:17;100331.78;;;21.13;57.04
50650;BME280;36621;60.058;30.346;2023-08-01T23:44:49;100325.25;;;21.05;57.34
50650;BME280;36621;60.058;30.346;2023-08-01T23:52:22;100327.81;;;20.98;57.40
50650;BME280;36621;60.058;30.346;2023-08-01T23:59:54;100320.44;;;20.90;57.81
